createdAt,value
2019-03-17T00:02:17.990Z,3.83
2019-03-17T00:04:46.424Z,3.90
2019-03-17T00:07:14.852Z,4.07
2019-03-17T00:09:43.276Z,3.30
2019-03-17T00:12:11.710Z,3.63
2019-03-17T00:14:40.139Z,3.67
2019-03-17T00:17:08.559Z,3.43
2019-03-17T00:19:37.006Z,3.73
2019-03-17T00:22:05.492Z,3.87
2019-03-17T00:24:33.926Z,3.87
2019-03-17T00:27:02.367Z,3.23
2019-03-17T00:29:30.779Z,3.47
2019-03-17T00:31:59.230Z,3.50
2019-03-17T00:34:27.628Z,3.60
2019-03-17T00:36:56.061Z,3.20
2019-03-17T00:39:24.537Z,3.23
2019-03-17T00:41:52.977Z,3.00
2019-03-17T00:44:21.416Z,3.37
2019-03-17T00:46:49.855Z,2.70
2019-03-17T00:49:18.294Z,3.07
2019-03-17T00:51:46.727Z,3.60
2019-03-17T00:54:15.154Z,2.93
2019-03-17T00:56:43.586Z,3.40
2019-03-17T00:59:11.998Z,2.43
2019-03-17T01:01:40.423Z,3.00
2019-03-17T01:04:08.875Z,2.33
2019-03-17T01:06:37.292Z,3.03
2019-03-17T01:09:06.184Z,3.37
2019-03-17T01:11:34.634Z,2.90
2019-03-17T01:14:03.055Z,2.70
2019-03-17T01:16:31.481Z,2.57
2019-03-17T01:18:59.884Z,2.67
2019-03-17T01:21:28.304Z,2.47
2019-03-17T01:23:56.739Z,2.40
2019-03-17T01:26:25.213Z,2.57
2019-03-17T01:28:53.631Z,3.23
2019-03-17T01:31:22.065Z,2.93
2019-03-17T01:33:50.492Z,2.67
2019-03-17T01:36:18.930Z,2.80
2019-03-17T01:38:47.325Z,2.33
2019-03-17T01:41:15.770Z,3.00
2019-03-17T01:43:44.205Z,3.30
2019-03-17T01:46:12.615Z,2.50
2019-03-17T01:48:41.023Z,2.40
2019-03-17T01:51:09.448Z,2.30
2019-03-17T01:53:37.863Z,2.67
2019-03-17T01:56:06.266Z,2.30
2019-03-17T01:58:34.723Z,2.47
2019-03-17T02:01:03.158Z,2.07
2019-03-17T02:03:31.608Z,2.40
2019-03-17T02:05:59.985Z,2.70
2019-03-17T02:08:28.423Z,2.37
2019-03-17T02:10:56.837Z,3.03
2019-03-17T02:13:25.267Z,3.40
2019-03-17T02:15:53.665Z,2.30
2019-03-17T02:18:22.065Z,2.47
2019-03-17T02:20:50.503Z,2.80
2019-03-17T02:23:18.903Z,1.93
2019-03-17T02:25:47.323Z,2.67
2019-03-17T02:28:15.746Z,2.97
2019-03-17T02:30:44.201Z,2.62
2019-03-17T02:33:12.629Z,2.63
2019-03-17T02:35:41.037Z,2.60
2019-03-17T02:38:09.461Z,2.20
2019-03-17T02:40:37.886Z,2.70
2019-03-17T02:43:06.299Z,2.50
2019-03-17T02:45:34.727Z,2.43
2019-03-17T02:48:03.135Z,2.43
2019-03-17T02:50:31.573Z,2.10
2019-03-17T02:52:59.999Z,2.13
2019-03-17T02:55:28.415Z,2.20
2019-03-17T02:57:56.964Z,2.10
2019-03-17T03:00:25.381Z,2.20
2019-03-17T03:02:53.782Z,2.03
2019-03-17T03:05:22.277Z,2.70
2019-03-17T03:07:50.667Z,1.97
2019-03-17T03:10:19.076Z,1.70
2019-03-17T03:12:47.499Z,2.10
2019-03-17T03:15:15.901Z,1.97
2019-03-17T03:17:44.341Z,2.00
2019-03-17T03:20:12.741Z,2.33
2019-03-17T03:22:41.196Z,2.03
2019-03-17T03:25:10.232Z,2.23
2019-03-17T03:27:38.701Z,1.40
2019-03-17T03:30:12.417Z,1.73
2019-03-17T03:32:40.850Z,1.97
2019-03-17T03:35:10.710Z,1.90
2019-03-17T03:37:39.110Z,1.70
2019-03-17T03:40:12.260Z,1.93
2019-03-17T03:42:40.665Z,2.13
2019-03-17T03:45:12.972Z,2.40
2019-03-17T03:47:41.388Z,1.80
2019-03-17T03:50:11.835Z,1.50
2019-03-17T03:52:40.317Z,1.87
2019-03-17T03:55:09.297Z,1.90
2019-03-17T03:57:37.700Z,2.10
2019-03-17T04:00:09.047Z,1.90
2019-03-17T04:02:37.628Z,2.00
2019-03-17T04:05:07.392Z,1.73
2019-03-17T04:07:35.799Z,1.90
2019-03-17T04:10:06.226Z,1.97
2019-03-17T04:12:34.629Z,1.60
2019-03-17T04:15:03.046Z,1.50
2019-03-17T04:17:31.454Z,2.33
2019-03-17T04:19:59.889Z,1.50
2019-03-17T04:22:28.310Z,1.60
2019-03-17T04:24:56.715Z,2.00
2019-03-17T04:27:25.152Z,1.63
2019-03-17T04:29:53.543Z,1.67
2019-03-17T04:32:21.959Z,1.73
2019-03-17T04:34:50.361Z,2.00
2019-03-17T04:37:18.798Z,1.83
2019-03-17T04:39:47.215Z,1.60
2019-03-17T04:42:15.630Z,1.43
2019-03-17T04:44:44.017Z,1.83
2019-03-17T04:47:12.455Z,1.63
2019-03-17T04:49:40.864Z,1.53
2019-03-17T04:52:09.321Z,1.57
2019-03-17T04:54:37.726Z,1.77
2019-03-17T04:57:06.150Z,1.50
2019-03-17T04:59:34.566Z,1.70
2019-03-17T05:02:03.008Z,1.77
2019-03-17T05:04:31.399Z,1.50
2019-03-17T05:06:59.792Z,1.43
2019-03-17T05:09:28.191Z,1.17
2019-03-17T05:11:56.616Z,1.20
2019-03-17T05:14:25.012Z,1.53
2019-03-17T05:16:53.434Z,1.67
2019-03-17T05:19:21.870Z,1.60
2019-03-17T05:21:50.292Z,1.50
2019-03-17T05:24:18.708Z,1.40
2019-03-17T05:26:47.124Z,1.30
2019-03-17T05:29:15.547Z,1.33
2019-03-17T05:31:43.955Z,1.70
2019-03-17T05:34:12.386Z,1.40
2019-03-17T05:36:40.796Z,1.33
2019-03-17T05:39:09.212Z,2.00
2019-03-17T05:41:37.646Z,1.37
2019-03-17T05:44:06.020Z,1.90
2019-03-17T05:46:34.491Z,1.60
2019-03-17T05:49:02.907Z,1.40
2019-03-17T05:51:31.355Z,1.30
2019-03-17T05:53:59.761Z,1.50
2019-03-17T05:56:28.181Z,1.40
2019-03-17T05:58:56.604Z,1.83
2019-03-17T06:01:25.030Z,1.30
2019-03-17T06:03:53.449Z,1.47
2019-03-17T06:06:21.888Z,1.30
2019-03-17T06:08:50.329Z,1.40
2019-03-17T06:11:18.760Z,1.13
2019-03-17T06:13:47.180Z,1.37
2019-03-17T06:16:15.614Z,1.30
2019-03-17T06:18:44.020Z,1.00
2019-03-17T06:21:12.463Z,1.63
2019-03-17T06:23:40.870Z,1.00
2019-03-17T06:26:09.315Z,1.37
2019-03-17T06:28:37.727Z,1.27
2019-03-17T06:31:06.160Z,0.90
2019-03-17T06:33:34.576Z,1.00
2019-03-17T06:36:03.000Z,0.83
2019-03-17T06:38:31.470Z,1.00
2019-03-17T06:40:59.878Z,0.87
2019-03-17T06:43:28.290Z,1.30
2019-03-17T06:45:56.718Z,1.00
2019-03-17T06:48:25.210Z,1.17
2019-03-17T06:50:53.581Z,1.17
2019-03-17T06:53:22.050Z,1.47
2019-03-17T06:55:50.456Z,1.47
2019-03-17T06:58:18.872Z,1.10
2019-03-17T07:00:47.303Z,1.30
2019-03-17T07:03:15.737Z,1.20
2019-03-17T07:05:44.168Z,1.17
2019-03-17T07:08:12.597Z,1.17
2019-03-17T07:10:41.037Z,1.20
2019-03-17T07:13:09.450Z,1.20
2019-03-17T07:15:37.894Z,1.10
2019-03-17T07:18:06.310Z,1.20
2019-03-17T07:20:34.757Z,1.17
2019-03-17T07:23:03.167Z,1.40
2019-03-17T07:25:31.599Z,0.90
2019-03-17T07:28:00.040Z,0.80
2019-03-17T07:30:28.454Z,1.50
2019-03-17T07:32:56.931Z,1.00
2019-03-17T07:35:25.337Z,1.35
2019-03-17T07:37:57.073Z,1.02
2019-03-17T07:40:23.897Z,0.93
2019-03-17T07:42:52.326Z,1.40
2019-03-17T07:45:20.743Z,1.07
2019-03-17T07:47:49.170Z,1.20
2019-03-17T07:50:17.670Z,1.60
2019-03-17T07:52:46.083Z,1.50
2019-03-17T07:55:14.505Z,0.93
2019-03-17T07:57:42.937Z,0.78
2019-03-17T08:00:14.737Z,1.20
2019-03-17T08:02:43.182Z,1.10
2019-03-17T08:05:11.583Z,1.30
2019-03-17T08:07:40.000Z,1.30
2019-03-17T08:10:15.769Z,1.20
2019-03-17T08:12:44.187Z,1.37
2019-03-17T08:15:13.787Z,1.10
2019-03-17T08:17:42.230Z,1.07
2019-03-17T08:20:11.877Z,1.17
2019-03-17T08:22:40.272Z,0.95
2019-03-17T08:25:10.894Z,1.00
2019-03-17T08:27:39.320Z,1.10
2019-03-17T08:30:17.634Z,1.02
2019-03-17T08:32:46.055Z,1.00
2019-03-17T08:35:14.476Z,1.20
2019-03-17T08:37:42.927Z,1.35
2019-03-17T08:40:13.539Z,0.98
2019-03-17T08:42:41.977Z,1.35
2019-03-17T08:45:12.125Z,1.67
2019-03-17T08:47:40.529Z,1.10
2019-03-17T08:50:13.891Z,1.30
2019-03-17T08:52:42.314Z,1.20
2019-03-17T08:55:11.585Z,1.10
2019-03-17T08:57:40.084Z,1.05
2019-03-17T09:00:19.532Z,1.00
2019-03-17T09:02:47.944Z,0.95
2019-03-17T09:05:16.536Z,1.37
2019-03-17T09:07:44.958Z,1.35
2019-03-17T09:10:15.471Z,0.98
2019-03-17T09:12:43.910Z,1.65
2019-03-17T09:15:12.405Z,1.05
2019-03-17T09:17:40.812Z,0.90
2019-03-17T09:20:11.380Z,0.90
2019-03-17T09:22:39.799Z,0.90
2019-03-17T09:25:10.173Z,1.07
2019-03-17T09:27:38.681Z,1.00
2019-03-17T09:30:13.098Z,1.05
2019-03-17T09:32:41.534Z,0.93
2019-03-17T09:35:10.505Z,0.80
2019-03-17T09:37:38.987Z,1.25
2019-03-17T09:40:17.523Z,0.82
2019-03-17T09:42:45.931Z,1.40
2019-03-17T09:45:15.514Z,1.25
2019-03-17T09:47:43.946Z,0.80
2019-03-17T09:50:14.613Z,1.30
2019-03-17T09:52:43.187Z,0.98
2019-03-17T09:55:11.765Z,1.37
2019-03-17T09:57:40.200Z,1.00
2019-03-17T10:00:11.657Z,7.75
2019-03-17T10:02:40.278Z,60.55
2019-03-17T10:05:09.951Z,82.37
2019-03-17T10:07:38.387Z,104.35
2019-03-17T10:10:12.483Z,115.20
2019-03-17T10:12:40.901Z,117.25
2019-03-17T10:15:12.514Z,132.07
2019-03-17T10:17:40.963Z,178.47
2019-03-17T10:20:14.792Z,181.85
2019-03-17T10:22:43.272Z,160.25
2019-03-17T10:25:12.727Z,179.57
2019-03-17T10:27:41.501Z,180.15
2019-03-17T10:30:17.803Z,166.25
2019-03-17T10:32:46.224Z,155.03
2019-03-17T10:35:14.743Z,135.10
2019-03-17T10:37:43.164Z,123.78
2019-03-17T10:40:18.953Z,120.13
2019-03-17T10:42:47.459Z,116.28
2019-03-17T10:45:15.907Z,118.00
2019-03-17T10:47:44.404Z,109.45
2019-03-17T10:50:22.602Z,85.75
2019-03-17T10:52:51.023Z,89.62
2019-03-17T10:55:19.463Z,77.55
2019-03-17T10:57:47.893Z,74.72
2019-03-17T11:00:21.493Z,59.30
2019-03-17T11:02:50.050Z,68.00
2019-03-17T11:05:18.430Z,45.55
2019-03-17T11:07:47.036Z,36.33
2019-03-17T11:10:16.030Z,45.23
2019-03-17T11:12:44.461Z,41.45
2019-03-17T11:15:20.847Z,42.78
2019-03-17T11:17:49.290Z,33.88
2019-03-17T11:20:17.879Z,29.92
2019-03-17T11:22:46.562Z,25.17
2019-03-17T11:25:19.326Z,23.80
2019-03-17T11:27:47.763Z,22.15
2019-03-17T11:30:20.015Z,24.75
2019-03-17T11:32:48.536Z,26.17
2019-03-17T11:35:17.010Z,21.55
2019-03-17T11:37:45.504Z,19.30
2019-03-17T11:40:18.197Z,23.33
2019-03-17T11:42:49.456Z,18.80
2019-03-17T11:45:17.522Z,19.67
2019-03-17T11:47:46.304Z,33.42
2019-03-17T11:50:20.598Z,24.32
2019-03-17T11:52:49.445Z,28.95
2019-03-17T11:55:18.040Z,28.62
2019-03-17T11:57:46.524Z,25.17
2019-03-17T12:00:18.688Z,21.17
2019-03-17T12:02:47.188Z,20.95
2019-03-17T12:05:15.623Z,19.85
2019-03-17T12:07:44.038Z,16.30
2019-03-17T12:10:20.696Z,14.03
2019-03-17T12:12:49.171Z,14.90
2019-03-17T12:15:34.676Z,14.10
2019-03-17T12:18:03.180Z,12.25
2019-03-17T12:20:31.660Z,9.33
2019-03-17T12:23:00.160Z,8.03
2019-03-17T12:25:28.646Z,7.33
2019-03-17T12:27:57.066Z,6.50
2019-03-17T12:30:26.281Z,6.07
2019-03-17T12:32:55.334Z,5.97
2019-03-17T12:35:23.961Z,4.90
2019-03-17T12:37:52.368Z,8.90
2019-03-17T12:40:20.779Z,6.60
2019-03-17T12:42:49.223Z,6.70
2019-03-17T12:45:17.783Z,6.57
2019-03-17T12:47:46.280Z,9.00
2019-03-17T12:50:18.974Z,9.00
2019-03-17T12:52:47.420Z,6.73
2019-03-17T12:55:15.845Z,10.70
2019-03-17T12:57:44.280Z,12.40
2019-03-17T13:00:15.518Z,9.20
2019-03-17T13:02:43.972Z,11.60
2019-03-17T13:05:13.228Z,6.27
2019-03-17T13:07:41.666Z,6.50
2019-03-17T13:10:20.578Z,7.53
2019-03-17T13:12:49.246Z,8.60
2019-03-17T13:15:17.760Z,10.67
2019-03-17T13:17:46.210Z,14.30
2019-03-17T13:20:15.991Z,19.00
2019-03-17T13:22:44.477Z,13.97
2019-03-17T13:25:13.146Z,15.43
2019-03-17T13:27:41.736Z,11.68
2019-03-17T13:30:17.704Z,11.77
2019-03-17T13:32:46.256Z,10.17
2019-03-17T13:35:14.786Z,6.57
2019-03-17T13:37:43.272Z,7.40
2019-03-17T13:40:27.660Z,6.70
2019-03-17T13:42:44.989Z,6.03
2019-03-17T13:45:14.067Z,8.33
2019-03-17T13:47:42.922Z,5.33
2019-03-17T13:50:24.029Z,7.20
2019-03-17T13:52:52.514Z,5.50
2019-03-17T13:55:21.248Z,4.67
2019-03-17T13:57:58.630Z,8.27
2019-03-17T14:00:27.076Z,9.00
2019-03-17T14:02:55.491Z,6.80
2019-03-17T14:05:23.919Z,10.27
2019-03-17T14:07:52.346Z,8.87
2019-03-17T14:10:20.759Z,6.90
2019-03-17T14:12:49.200Z,9.53
2019-03-17T14:15:17.626Z,7.47
2019-03-17T14:17:46.246Z,7.80
2019-03-17T14:20:20.923Z,6.30
2019-03-17T14:22:49.959Z,6.90
2019-03-17T14:25:23.946Z,6.20
2019-03-17T14:27:52.475Z,7.23
2019-03-17T14:30:20.948Z,6.00
2019-03-17T14:32:49.638Z,5.40
2019-03-17T14:35:21.356Z,4.77
2019-03-17T14:37:48.567Z,4.03
2019-03-17T14:40:17.428Z,7.70
2019-03-17T14:42:48.067Z,6.30
2019-03-17T14:45:17.634Z,7.20
2019-03-17T14:47:46.136Z,4.90
2019-03-17T14:50:17.049Z,4.97
2019-03-17T14:52:45.540Z,6.33
2019-03-17T14:55:14.038Z,5.83
2019-03-17T14:57:42.739Z,3.90
2019-03-17T15:00:16.064Z,4.73
2019-03-17T15:02:45.034Z,5.70
2019-03-17T15:05:13.686Z,8.60
2019-03-17T15:07:42.139Z,7.30
2019-03-17T15:10:13.214Z,8.67
2019-03-17T15:12:41.658Z,6.87
2019-03-17T15:15:13.030Z,8.00
2019-03-17T15:17:41.556Z,8.50
2019-03-17T15:20:12.913Z,7.77
2019-03-17T15:22:41.325Z,9.53
2019-03-17T15:25:11.184Z,8.40
2019-03-17T15:27:41.841Z,10.30
2019-03-17T15:30:12.780Z,10.77
2019-03-17T15:32:41.220Z,15.20
2019-03-17T15:35:12.180Z,11.43
2019-03-17T15:37:40.617Z,7.63
2019-03-17T15:40:14.979Z,7.40
2019-03-17T15:42:43.599Z,6.83
2019-03-17T15:45:16.906Z,3.67
2019-03-17T15:47:45.485Z,3.70
2019-03-17T15:50:15.885Z,2.33
2019-03-17T15:52:44.285Z,3.70
2019-03-17T15:55:15.393Z,3.87
2019-03-17T15:57:44.090Z,3.55
2019-03-17T16:00:25.043Z,2.20
2019-03-17T16:02:45.171Z,2.10
2019-03-17T16:05:13.757Z,2.37
2019-03-17T16:07:42.923Z,2.17
2019-03-17T16:10:17.031Z,4.27
2019-03-17T16:12:45.472Z,19.27
2019-03-17T16:15:14.973Z,6.87
2019-03-17T16:17:43.395Z,13.70
2019-03-17T16:20:20.226Z,10.90
2019-03-17T16:22:48.882Z,4.70
2019-03-17T16:25:28.209Z,7.10
2019-03-17T16:27:56.769Z,4.83
2019-03-17T16:30:29.380Z,5.97
2019-03-17T16:32:57.785Z,4.30
2019-03-17T16:35:28.053Z,6.20
2019-03-17T16:37:56.418Z,7.50
2019-03-17T16:40:31.915Z,4.87
2019-03-17T16:43:00.430Z,7.30
2019-03-17T16:45:28.865Z,10.07
2019-03-17T16:47:57.475Z,6.33
2019-03-17T16:50:26.114Z,8.00
2019-03-17T16:52:54.525Z,4.80
2019-03-17T16:55:23.054Z,6.90
2019-03-17T16:57:51.600Z,5.77
2019-03-17T17:00:24.332Z,13.30
2019-03-17T17:02:52.861Z,12.37
2019-03-17T17:05:22.331Z,5.40
2019-03-17T17:07:50.768Z,4.70
2019-03-17T17:10:29.281Z,4.17
2019-03-17T17:12:57.803Z,9.60
2019-03-17T17:15:31.184Z,6.27
2019-03-17T17:17:59.583Z,3.70
2019-03-17T17:20:41.266Z,5.10
2019-03-17T17:23:09.689Z,3.00
2019-03-17T17:25:38.188Z,3.60
2019-03-17T17:28:06.635Z,2.73
2019-03-17T17:30:35.039Z,3.50
2019-03-17T17:33:03.477Z,2.60
2019-03-17T17:35:31.917Z,8.97
2019-03-17T17:38:00.362Z,10.50
2019-03-17T17:40:28.873Z,4.80
2019-03-17T17:42:57.291Z,3.57
2019-03-17T17:45:26.287Z,11.57
2019-03-17T17:47:54.704Z,5.53
2019-03-17T17:50:30.633Z,6.00
2019-03-17T17:52:59.063Z,3.13
2019-03-17T17:55:27.633Z,4.93
2019-03-17T17:57:56.221Z,3.23
2019-03-17T18:00:44.408Z,2.97
2019-03-17T18:03:12.836Z,4.33
2019-03-17T18:05:41.253Z,3.07
2019-03-17T18:08:09.733Z,3.87
2019-03-17T18:10:38.301Z,3.50
2019-03-17T18:13:06.796Z,3.40
2019-03-17T18:15:35.861Z,3.53
2019-03-17T18:18:04.474Z,3.40
2019-03-17T18:20:32.889Z,2.70
2019-03-17T18:23:01.330Z,3.53
2019-03-17T18:25:29.806Z,2.63
2019-03-17T18:27:58.580Z,4.93
2019-03-17T18:30:26.983Z,2.43
2019-03-17T18:32:55.459Z,2.43
2019-03-17T18:35:23.881Z,2.47
2019-03-17T18:37:52.314Z,2.93
2019-03-17T18:40:21.664Z,3.30
2019-03-17T18:42:50.411Z,2.10
2019-03-17T18:45:32.560Z,2.17
2019-03-17T18:48:01.000Z,3.60
2019-03-17T18:50:29.407Z,2.30
2019-03-17T18:52:58.125Z,2.40
2019-03-17T18:55:26.548Z,2.23
2019-03-17T18:57:55.054Z,1.67
2019-03-17T19:00:26.760Z,2.60
2019-03-17T19:02:55.193Z,2.43
2019-03-17T19:05:23.604Z,2.47
2019-03-17T19:07:52.051Z,2.33
2019-03-17T19:10:21.203Z,2.53
2019-03-17T19:12:49.720Z,2.07
2019-03-17T19:15:21.998Z,2.70
2019-03-17T19:17:50.725Z,1.83
2019-03-17T19:20:21.027Z,2.33
2019-03-17T19:22:49.500Z,2.00
2019-03-17T19:25:22.926Z,1.90
2019-03-17T19:27:51.421Z,1.93
2019-03-17T19:30:21.868Z,1.93
2019-03-17T19:32:50.484Z,2.17
2019-03-17T19:35:18.966Z,1.10
2019-03-17T19:37:47.402Z,2.10
2019-03-17T19:40:18.127Z,1.90
2019-03-17T19:42:57.898Z,1.50
2019-03-17T19:45:16.777Z,1.27
2019-03-17T19:47:45.183Z,1.43
2019-03-17T19:50:18.047Z,1.37
2019-03-17T19:52:46.483Z,1.40
2019-03-17T19:55:15.006Z,1.50
2019-03-17T19:57:43.443Z,1.37
2019-03-17T20:00:17.426Z,1.40
2019-03-17T20:02:47.724Z,1.00
2019-03-17T20:05:16.278Z,1.10
2019-03-17T20:07:44.691Z,1.50
2019-03-17T20:10:29.863Z,1.37
2019-03-17T20:13:10.410Z,1.60
2019-03-17T20:15:28.480Z,1.00
2019-03-17T20:17:56.936Z,1.13
2019-03-17T20:20:25.513Z,1.27
2019-03-17T20:22:53.920Z,1.00
2019-03-17T20:25:22.342Z,1.03
2019-03-17T20:27:50.814Z,1.00
2019-03-17T20:30:20.016Z,0.90
2019-03-17T20:32:48.519Z,1.10
2019-03-17T20:35:16.991Z,1.00
2019-03-17T20:37:45.401Z,1.30
2019-03-17T20:40:16.020Z,1.27
2019-03-17T20:42:44.429Z,1.43
2019-03-17T20:45:14.187Z,1.42
2019-03-17T20:47:42.870Z,1.27
2019-03-17T20:50:18.662Z,0.87
2019-03-17T20:52:47.060Z,1.07
2019-03-17T20:55:15.556Z,0.90
2019-03-17T20:57:44.002Z,0.80
2019-03-17T21:00:19.556Z,0.77
2019-03-17T21:02:47.971Z,0.60
2019-03-17T21:05:16.404Z,0.80
2019-03-17T21:07:44.839Z,0.67
2019-03-17T21:10:15.230Z,0.80
2019-03-17T21:12:43.655Z,1.03
2019-03-17T21:15:13.327Z,0.80
2019-03-17T21:17:41.739Z,0.80
2019-03-17T21:20:15.381Z,0.73
2019-03-17T21:22:43.825Z,1.17
2019-03-17T21:25:12.559Z,0.90
2019-03-17T21:27:41.004Z,0.77
2019-03-17T21:30:12.830Z,1.43
2019-03-17T21:32:41.245Z,0.73
2019-03-17T21:35:09.691Z,0.80
2019-03-17T21:37:38.092Z,0.77
2019-03-17T21:40:09.537Z,1.17
2019-03-17T21:42:37.969Z,1.00
2019-03-17T21:45:08.647Z,0.87
2019-03-17T21:47:37.098Z,0.70
2019-03-17T21:50:14.202Z,0.70
2019-03-17T21:52:42.632Z,0.70
2019-03-17T21:55:11.781Z,1.10
2019-03-17T21:57:40.232Z,1.30
2019-03-17T22:00:11.982Z,0.73
2019-03-17T22:02:40.399Z,0.70
2019-03-17T22:05:08.852Z,0.80
2019-03-17T22:07:48.770Z,0.50
2019-03-17T22:10:14.168Z,0.60
2019-03-17T22:12:42.647Z,0.90
2019-03-17T22:15:15.207Z,0.67
2019-03-17T22:17:43.724Z,0.63
2019-03-17T22:20:13.365Z,0.47
2019-03-17T22:22:41.816Z,0.80
2019-03-17T22:25:16.777Z,0.50
2019-03-17T22:27:45.232Z,0.60
2019-03-17T22:30:21.371Z,0.70
2019-03-17T22:32:49.840Z,0.53
2019-03-17T22:35:18.236Z,0.50
2019-03-17T22:37:46.768Z,0.57
2019-03-17T22:40:19.070Z,0.63
2019-03-17T22:42:47.488Z,0.60
2019-03-17T22:45:16.527Z,0.50
2019-03-17T22:47:44.972Z,0.53
2019-03-17T22:50:18.013Z,0.60
2019-03-17T22:52:46.685Z,0.60
2019-03-17T22:55:15.342Z,0.40
2019-03-17T22:57:43.925Z,0.60
2019-03-17T23:00:18.515Z,0.50
2019-03-17T23:02:46.933Z,0.67
2019-03-17T23:05:15.365Z,0.60
2019-03-17T23:07:43.770Z,0.80
2019-03-17T23:10:12.868Z,0.30
2019-03-17T23:12:41.308Z,0.43
2019-03-17T23:15:11.466Z,0.70
2019-03-17T23:17:39.991Z,0.50
2019-03-17T23:20:11.455Z,0.60
2019-03-17T23:22:39.878Z,0.63
2019-03-17T23:25:10.050Z,0.50
2019-03-17T23:27:38.736Z,0.70
2019-03-17T23:30:10.235Z,0.40
2019-03-17T23:32:38.718Z,0.40
2019-03-17T23:35:08.178Z,0.50
2019-03-17T23:37:36.622Z,0.50
2019-03-17T23:40:09.706Z,0.40
2019-03-17T23:42:38.196Z,0.53
2019-03-17T23:45:09.417Z,0.40
2019-03-17T23:47:38.201Z,0.50
2019-03-17T23:50:11.592Z,0.47
2019-03-17T23:52:40.114Z,0.43
2019-03-17T23:55:10.743Z,0.47
2019-03-17T23:57:39.249Z,0.50
